sensor_id;sensor_type;location;lat;lon;timestamp;pressure;altitude;pressure_sealevel;temperature;humidity
10587;BME280;5341;47.606;7.576;2023-07-08T00:01:16;98721.66;;;28.15;39.33
10587;BME280;5341;47.606;7.576;2023-07-08T00:03:45;98727.47;;;28.13;39.43
10587;BME280;5341;47.606;7.576;2023-07-08T00:06:16;98727.78;;;28.12;39.20
10587;BME280;5341;47.606;7.576;2023-07-08T00:08:45;98723.66;;;28.09;39.40
10587;BME280;5341;47.606;7.576;2023-07-08T00:11:15;98718.47;;;28.08;39.30
10587;BME280;5341;47.606;7.576;2023-07-08T00:13:43;98721.53;;;28.06;39.43
10587;BME280;5341;47.606;7.576;2023-07-08T00:16:12;98718.25;;;28.04;39.56
10587;BME280;5341;47.606;7.576;2023-07-08T00:18:41;98716.09;;;28.01;39.34
10587;BME280;5341;47.606;7.576;2023-07-08T00:21:12;98710.38;;;27.97;39.41
10587;BME280;5341;47.606;7.576;2023-07-08T00:23:43;98713.72;;;27.94;39.28
10587;BME280;5341;47.606;7.576;2023-07-08T00:26:15;98712.38;;;27.92;39.20
10587;BME280;5341;47.606;7.576;2023-07-08T00:28:47;98716.25;;;27.91;39.18
10587;BME280;5341;47.606;7.576;2023-07-08T00:31:14;98717.66;;;27.88;39.19
10587;BME280;5341;47.606;7.576;2023-07-08T00:33:42;98721.81;;;27.86;39.01
10587;BME280;5341;47.606;7.576;2023-07-08T00:36:14;98721.00;;;27.85;38.92
10587;BME280;5341;47.606;7.576;2023-07-08T00:38:43;98711.72;;;27.81;38.98
10587;BME280;5341;47.606;7.576;2023-07-08T00:41:16;98713.63;;;27.81;38.73
10587;BME280;5341;47.606;7.576;2023-07-08T00:43:50;98710.38;;;27.79;38.93
10587;BME280;5341;47.606;7.576;2023-07-08T00:46:33;98716.47;;;27.76;38.75
10587;BME280;5341;47.606;7.576;2023-07-08T00:49:24;98728.03;;;27.72;38.34
10587;BME280;5341;47.606;7.576;2023-07-08T00:52:24;98710.22;;;27.70;38.55
10587;BME280;5341;47.606;7.576;2023-07-08T00:54:54;98711.38;;;27.64;38.43
10587;BME280;5341;47.606;7.576;2023-07-08T00:57:30;98708.38;;;27.60;38.17
10587;BME280;5341;47.606;7.576;2023-07-08T01:00:02;98718.84;;;27.58;37.93
10587;BME280;5341;47.606;7.576;2023-07-08T01:02:34;98723.81;;;27.56;38.11
10587;BME280;5341;47.606;7.576;2023-07-08T01:05:06;98734.00;;;27.56;37.55
10587;BME280;5341;47.606;7.576;2023-07-08T01:07:44;98737.88;;;27.55;37.11
10587;BME280;5341;47.606;7.576;2023-07-08T01:10:19;98738.47;;;27.52;36.68
10587;BME280;5341;47.606;7.576;2023-07-08T01:12:56;98751.41;;;27.46;35.93
10587;BME280;5341;47.606;7.576;2023-07-08T01:15:32;98751.78;;;27.39;35.23
10587;BME280;5341;47.606;7.576;2023-07-08T01:18:05;98746.34;;;27.34;34.84
10587;BME280;5341;47.606;7.576;2023-07-08T01:20:33;98760.66;;;27.31;35.14
10587;BME280;5341;47.606;7.576;2023-07-08T01:23:02;98751.91;;;27.29;35.58
10587;BME280;5341;47.606;7.576;2023-07-08T01:25:31;98747.00;;;27.26;35.44
10587;BME280;5341;47.606;7.576;2023-07-08T01:27:59;98743.41;;;27.26;36.07
10587;BME280;5341;47.606;7.576;2023-07-08T01:30:28;98752.22;;;27.23;36.05
10587;BME280;5341;47.606;7.576;2023-07-08T01:32:59;98748.97;;;27.21;36.26
10587;BME280;5341;47.606;7.576;2023-07-08T01:35:27;98752.81;;;27.20;36.00
10587;BME280;5341;47.606;7.576;2023-07-08T01:37:57;98777.84;;;27.18;36.03
10587;BME280;5341;47.606;7.576;2023-07-08T01:40:30;98781.41;;;27.19;35.99
10587;BME280;5341;47.606;7.576;2023-07-08T01:43:01;98816.28;;;27.18;36.23
10587;BME280;5341;47.606;7.576;2023-07-08T01:45:32;98834.66;;;27.18;36.48
10587;BME280;5341;47.606;7.576;2023-07-08T01:48:05;98836.31;;;27.19;36.72
10587;BME280;5341;47.606;7.576;2023-07-08T01:50:37;98854.13;;;27.21;37.05
10587;BME280;5341;47.606;7.576;2023-07-08T01:53:11;98852.78;;;27.19;37.12
10587;BME280;5341;47.606;7.576;2023-07-08T01:55:40;98859.69;;;27.16;37.76
10587;BME280;5341;47.606;7.576;2023-07-08T01:58:07;98849.81;;;27.15;38.08
10587;BME280;5341;47.606;7.576;2023-07-08T02:00:36;98854.50;;;27.09;38.70
10587;BME280;5341;47.606;7.576;2023-07-08T02:03:03;98865.78;;;27.08;38.82
10587;BME280;5341;47.606;7.576;2023-07-08T02:05:31;98861.69;;;27.05;39.58
10587;BME280;5341;47.606;7.576;2023-07-08T02:07:58;98877.63;;;27.03;39.67
10587;BME280;5341;47.606;7.576;2023-07-08T02:10:26;98891.34;;;27.03;40.17
10587;BME280;5341;47.606;7.576;2023-07-08T02:12:55;98899.88;;;27.02;40.60
10587;BME280;5341;47.606;7.576;2023-07-08T02:15:22;98920.16;;;27.01;40.60
10587;BME280;5341;47.606;7.576;2023-07-08T02:17:50;98914.66;;;27.01;41.41
10587;BME280;5341;47.606;7.576;2023-07-08T02:20:17;98918.25;;;27.01;42.03
10587;BME280;5341;47.606;7.576;2023-07-08T02:22:44;98915.31;;;26.87;42.56
10587;BME280;5341;47.606;7.576;2023-07-08T02:25:12;98931.00;;;26.82;42.63
10587;BME280;5341;47.606;7.576;2023-07-08T02:27:40;98952.94;;;26.82;42.66
10587;BME280;5341;47.606;7.576;2023-07-08T02:30:09;98973.78;;;26.83;43.20
10587;BME280;5341;47.606;7.576;2023-07-08T02:32:37;98983.66;;;26.84;43.38
10587;BME280;5341;47.606;7.576;2023-07-08T02:35:08;98998.22;;;26.84;43.67
10587;BME280;5341;47.606;7.576;2023-07-08T02:37:36;99003.69;;;26.84;43.90
10587;BME280;5341;47.606;7.576;2023-07-08T02:40:04;99013.84;;;26.84;44.46
10587;BME280;5341;47.606;7.576;2023-07-08T02:42:32;99018.00;;;26.81;44.37
10587;BME280;5341;47.606;7.576;2023-07-08T02:44:59;99017.19;;;26.81;44.75
10587;BME280;5341;47.606;7.576;2023-07-08T02:47:28;99005.94;;;26.77;45.48
10587;BME280;5341;47.606;7.576;2023-07-08T02:49:56;98997.72;;;26.72;45.75
10587;BME280;5341;47.606;7.576;2023-07-08T02:52:23;98996.38;;;26.70;45.69
10587;BME280;5341;47.606;7.576;2023-07-08T02:54:52;99003.53;;;26.66;45.92
10587;BME280;5341;47.606;7.576;2023-07-08T02:57:21;99000.22;;;26.64;46.38
10587;BME280;5341;47.606;7.576;2023-07-08T02:59:48;98998.88;;;26.61;46.98
10587;BME280;5341;47.606;7.576;2023-07-08T03:02:16;98993.13;;;26.57;46.88
10587;BME280;5341;47.606;7.576;2023-07-08T03:04:45;99006.31;;;26.55;46.84
10587;BME280;5341;47.606;7.576;2023-07-08T03:07:13;99002.19;;;26.53;47.51
10587;BME280;5341;47.606;7.576;2023-07-08T03:09:41;98998.66;;;26.47;47.57
10587;BME280;5341;47.606;7.576;2023-07-08T03:12:09;98995.66;;;26.44;47.89
10587;BME280;5341;47.606;7.576;2023-07-08T03:14:38;98986.09;;;26.36;48.69
10587;BME280;5341;47.606;7.576;2023-07-08T03:17:06;98982.25;;;26.32;48.61
10587;BME280;5341;47.606;7.576;2023-07-08T03:19:34;98991.03;;;26.29;48.97
10587;BME280;5341;47.606;7.576;2023-07-08T03:22:04;98993.50;;;26.25;49.42
10587;BME280;5341;47.606;7.576;2023-07-08T03:24:32;98997.91;;;26.21;49.64
10587;BME280;5341;47.606;7.576;2023-07-08T03:27:02;99000.38;;;26.18;49.74
10587;BME280;5341;47.606;7.576;2023-07-08T03:29:35;99007.50;;;26.14;50.22
10587;BME280;5341;47.606;7.576;2023-07-08T03:32:04;99007.00;;;26.07;50.50
10587;BME280;5341;47.606;7.576;2023-07-08T03:34:32;99014.66;;;25.99;50.61
10587;BME280;5341;47.606;7.576;2023-07-08T03:36:59;99036.63;;;25.94;50.99
10587;BME280;5341;47.606;7.576;2023-07-08T03:39:30;99058.53;;;25.89;50.92
10587;BME280;5341;47.606;7.576;2023-07-08T03:41:57;99079.91;;;25.87;50.77
10587;BME280;5341;47.606;7.576;2023-07-08T03:44:25;99106.22;;;25.88;50.55
10587;BME280;5341;47.606;7.576;2023-07-08T03:46:53;99143.19;;;25.91;50.55
10587;BME280;5341;47.606;7.576;2023-07-08T03:49:21;99162.09;;;25.92;51.00
10587;BME280;5341;47.606;7.576;2023-07-08T03:51:52;99179.63;;;25.76;52.53
10587;BME280;5341;47.606;7.576;2023-07-08T03:54:21;99185.28;;;25.49;52.80
10587;BME280;5341;47.606;7.576;2023-07-08T03:56:51;99211.00;;;25.33;54.56
10587;BME280;5341;47.606;7.576;2023-07-08T03:59:21;99222.59;;;25.03;54.99
10587;BME280;5341;47.606;7.576;2023-07-08T04:01:50;99224.34;;;24.82;55.99
10587;BME280;5341;47.606;7.576;2023-07-08T04:04:17;99216.41;;;24.80;55.36
10587;BME280;5341;47.606;7.576;2023-07-08T04:06:45;99215.38;;;24.92;54.71
10587;BME280;5341;47.606;7.576;2023-07-08T04:09:13;99211.09;;;25.06;54.40
10587;BME280;5341;47.606;7.576;2023-07-08T04:11:40;99218.84;;;25.19;53.97
10587;BME280;5341;47.606;7.576;2023-07-08T04:14:10;99218.88;;;25.29;53.63
10587;BME280;5341;47.606;7.576;2023-07-08T04:16:45;99207.97;;;25.39;53.15
10587;BME280;5341;47.606;7.576;2023-07-08T04:19:14;99204.19;;;25.46;53.12
10587;BME280;5341;47.606;7.576;2023-07-08T04:21:43;99214.31;;;25.50;53.13
10587;BME280;5341;47.606;7.576;2023-07-08T04:24:12;99221.44;;;25.51;53.26
10587;BME280;5341;47.606;7.576;2023-07-08T04:26:40;99229.13;;;25.54;52.81
10587;BME280;5341;47.606;7.576;2023-07-08T04:29:13;99229.44;;;25.58;52.80
10587;BME280;5341;47.606;7.576;2023-07-08T04:31:41;99216.28;;;25.60;52.81
10587;BME280;5341;47.606;7.576;2023-07-08T04:34:09;99210.53;;;25.61;52.73
10587;BME280;5341;47.606;7.576;2023-07-08T04:36:37;99198.75;;;25.61;52.92
10587;BME280;5341;47.606;7.576;2023-07-08T04:39:06;99176.84;;;25.61;53.17
10587;BME280;5341;47.606;7.576;2023-07-08T04:41:35;99170.50;;;25.55;53.45
10587;BME280;5341;47.606;7.576;2023-07-08T04:44:06;99154.06;;;25.50;53.59
10587;BME280;5341;47.606;7.576;2023-07-08T04:46:39;99156.53;;;25.47;53.87
10587;BME280;5341;47.606;7.576;2023-07-08T04:49:08;99171.84;;;25.42;53.96
10587;BME280;5341;47.606;7.576;2023-07-08T04:51:37;99179.22;;;25.42;53.87
10587;BME280;5341;47.606;7.576;2023-07-08T04:54:05;99176.22;;;25.43;53.72
10587;BME280;5341;47.606;7.576;2023-07-08T04:56:37;99185.84;;;25.46;53.68
10587;BME280;5341;47.606;7.576;2023-07-08T04:59:05;99176.81;;;25.46;53.62
10587;BME280;5341;47.606;7.576;2023-07-08T05:01:32;99180.34;;;25.46;53.88
10587;BME280;5341;47.606;7.576;2023-07-08T05:04:02;99179.81;;;25.44;54.05
10587;BME280;5341;47.606;7.576;2023-07-08T05:06:31;99184.44;;;25.43;53.84
10587;BME280;5341;47.606;7.576;2023-07-08T05:08:58;99183.88;;;25.41;53.90
10587;BME280;5341;47.606;7.576;2023-07-08T05:11:26;99192.09;;;25.41;54.11
10587;BME280;5341;47.606;7.576;2023-07-08T05:13:53;99192.94;;;25.42;53.93
10587;BME280;5341;47.606;7.576;2023-07-08T05:16:21;99207.44;;;25.42;53.81
10587;BME280;5341;47.606;7.576;2023-07-08T05:18:50;99211.00;;;25.43;53.77
10587;BME280;5341;47.606;7.576;2023-07-08T05:21:20;99212.38;;;25.40;53.97
10587;BME280;5341;47.606;7.576;2023-07-08T05:23:48;99197.56;;;25.36;53.89
10587;BME280;5341;47.606;7.576;2023-07-08T05:26:16;99206.06;;;25.35;53.98
10587;BME280;5341;47.606;7.576;2023-07-08T05:28:44;99204.94;;;25.31;54.11
10587;BME280;5341;47.606;7.576;2023-07-08T05:31:11;99205.47;;;25.28;53.99
10587;BME280;5341;47.606;7.576;2023-07-08T05:33:39;99217.50;;;25.27;54.07
10587;BME280;5341;47.606;7.576;2023-07-08T05:36:06;99215.31;;;25.24;54.02
10587;BME280;5341;47.606;7.576;2023-07-08T05:38:35;99212.03;;;25.22;54.14
10587;BME280;5341;47.606;7.576;2023-07-08T05:41:03;99214.78;;;25.22;53.97
10587;BME280;5341;47.606;7.576;2023-07-08T05:43:30;99215.84;;;25.21;53.97
10587;BME280;5341;47.606;7.576;2023-07-08T05:45:58;99206.50;;;25.17;54.33
10587;BME280;5341;47.606;7.576;2023-07-08T05:48:26;99198.03;;;25.13;54.34
10587;BME280;5341;47.606;7.576;2023-07-08T05:50:53;99188.72;;;25.09;54.66
10587;BME280;5341;47.606;7.576;2023-07-08T05:53:21;99186.78;;;25.09;54.65
10587;BME280;5341;47.606;7.576;2023-07-08T05:55:50;99182.66;;;25.07;54.56
10587;BME280;5341;47.606;7.576;2023-07-08T05:58:18;99173.06;;;25.04;54.65
10587;BME280;5341;47.606;7.576;2023-07-08T06:00:45;99175.25;;;25.02;54.76
10587;BME280;5341;47.606;7.576;2023-07-08T06:03:13;99173.03;;;24.99;54.91
10587;BME280;5341;47.606;7.576;2023-07-08T06:05:40;99156.31;;;24.96;54.96
10587;BME280;5341;47.606;7.576;2023-07-08T06:08:09;99167.78;;;24.93;55.12
10587;BME280;5341;47.606;7.576;2023-07-08T06:10:42;99171.59;;;24.92;55.02
10587;BME280;5341;47.606;7.576;2023-07-08T06:13:12;99180.63;;;24.87;55.30
10587;BME280;5341;47.606;7.576;2023-07-08T06:15:41;99181.66;;;24.81;55.46
10587;BME280;5341;47.606;7.576;2023-07-08T06:18:09;99183.03;;;24.78;55.67
10587;BME280;5341;47.606;7.576;2023-07-08T06:20:37;99183.03;;;24.78;55.78
10587;BME280;5341;47.606;7.576;2023-07-08T06:23:04;99183.84;;;24.79;55.95
10587;BME280;5341;47.606;7.576;2023-07-08T06:25:32;99184.38;;;24.76;55.99
10587;BME280;5341;47.606;7.576;2023-07-08T06:28:00;99174.25;;;24.76;55.93
10587;BME280;5341;47.606;7.576;2023-07-08T06:30:29;99172.91;;;24.79;55.92
10587;BME280;5341;47.606;7.576;2023-07-08T06:32:56;99163.06;;;24.78;55.94
10587;BME280;5341;47.606;7.576;2023-07-08T06:35:24;99152.94;;;24.78;56.00
10587;BME280;5341;47.606;7.576;2023-07-08T06:37:51;99152.66;;;24.80;56.18
10587;BME280;5341;47.606;7.576;2023-07-08T06:40:19;99152.66;;;24.80;56.16
10587;BME280;5341;47.606;7.576;2023-07-08T06:42:47;99149.66;;;24.81;56.21
10587;BME280;5341;47.606;7.576;2023-07-08T06:45:43;99133.25;;;24.81;56.18
10587;BME280;5341;47.606;7.576;2023-07-08T06:48:10;99141.72;;;24.80;56.19
10587;BME280;5341;47.606;7.576;2023-07-08T06:50:38;99139.53;;;24.82;56.22
10587;BME280;5341;47.606;7.576;2023-07-08T06:53:05;99139.28;;;24.83;56.00
10587;BME280;5341;47.606;7.576;2023-07-08T06:55:33;99134.38;;;24.86;56.03
10587;BME280;5341;47.606;7.576;2023-07-08T06:58:01;99139.56;;;24.87;55.75
10587;BME280;5341;47.606;7.576;2023-07-08T07:00:28;99150.53;;;24.87;55.74
10587;BME280;5341;47.606;7.576;2023-07-08T07:02:57;99135.47;;;24.90;55.54
10587;BME280;5341;47.606;7.576;2023-07-08T07:05:25;99136.31;;;24.90;55.49
10587;BME280;5341;47.606;7.576;2023-07-08T07:07:52;99137.94;;;24.91;55.28
10587;BME280;5341;47.606;7.576;2023-07-08T07:10:20;99127.00;;;24.91;55.16
10587;BME280;5341;47.606;7.576;2023-07-08T07:12:48;99119.88;;;24.90;55.18
10587;BME280;5341;47.606;7.576;2023-07-08T07:15:15;99118.78;;;24.91;55.20
10587;BME280;5341;47.606;7.576;2023-07-08T07:17:43;99125.91;;;24.92;55.15
10587;BME280;5341;47.606;7.576;2023-07-08T07:20:13;99117.16;;;24.90;55.14
10587;BME280;5341;47.606;7.576;2023-07-08T07:22:40;99117.41;;;24.89;55.18
10587;BME280;5341;47.606;7.576;2023-07-08T07:25:08;99116.31;;;24.84;55.13
10587;BME280;5341;47.606;7.576;2023-07-08T07:27:35;99109.97;;;24.79;55.17
10587;BME280;5341;47.606;7.576;2023-07-08T07:30:04;99106.16;;;24.75;55.21
10587;BME280;5341;47.606;7.576;2023-07-08T07:32:31;99113.47;;;24.69;55.16
10587;BME280;5341;47.606;7.576;2023-07-08T07:35:00;99104.44;;;24.64;55.34
10587;BME280;5341;47.606;7.576;2023-07-08T07:37:29;99104.72;;;24.62;55.47
10587;BME280;5341;47.606;7.576;2023-07-08T07:39:57;99102.47;;;24.59;55.46
10587;BME280;5341;47.606;7.576;2023-07-08T07:42:27;99097.00;;;24.59;55.59
10587;BME280;5341;47.606;7.576;2023-07-08T07:44:55;99095.38;;;24.58;55.65
10587;BME280;5341;47.606;7.576;2023-07-08T07:47:22;99088.25;;;24.57;55.71
10587;BME280;5341;47.606;7.576;2023-07-08T07:49:50;99071.03;;;24.57;55.95
10587;BME280;5341;47.606;7.576;2023-07-08T07:52:17;99075.69;;;24.56;55.90
10587;BME280;5341;47.606;7.576;2023-07-08T07:54:51;99065.00;;;24.54;55.91
10587;BME280;5341;47.606;7.576;2023-07-08T07:57:19;99065.81;;;24.55;55.96
10587;BME280;5341;47.606;7.576;2023-07-08T07:59:47;99065.00;;;24.54;56.00
10587;BME280;5341;47.606;7.576;2023-07-08T08:02:15;99059.81;;;24.53;56.12
10587;BME280;5341;47.606;7.576;2023-07-08T08:04:43;99057.06;;;24.53;56.18
10587;BME280;5341;47.606;7.576;2023-07-08T08:07:10;99046.69;;;24.50;56.10
10587;BME280;5341;47.606;7.576;2023-07-08T08:09:39;99045.59;;;24.51;56.16
10587;BME280;5341;47.606;7.576;2023-07-08T08:12:10;99039.84;;;24.52;56.27
10587;BME280;5341;47.606;7.576;2023-07-08T08:14:38;99029.72;;;24.53;56.15
10587;BME280;5341;47.606;7.576;2023-07-08T08:17:06;99036.56;;;24.55;56.24
10587;BME280;5341;47.606;7.576;2023-07-08T08:19:33;99028.09;;;24.57;56.20
10587;BME280;5341;47.606;7.576;2023-07-08T08:22:01;99023.44;;;24.58;56.07
10587;BME280;5341;47.606;7.576;2023-07-08T08:24:29;99030.31;;;24.60;56.16
10587;BME280;5341;47.606;7.576;2023-07-08T08:26:56;99033.34;;;24.64;55.99
10587;BME280;5341;47.606;7.576;2023-07-08T08:29:25;99032.25;;;24.65;56.00
10587;BME280;5341;47.606;7.576;2023-07-08T08:31:53;99025.69;;;24.66;56.11
10587;BME280;5341;47.606;7.576;2023-07-08T08:34:22;99025.97;;;24.69;56.11
10587;BME280;5341;47.606;7.576;2023-07-08T08:36:49;99047.06;;;24.74;56.08
10587;BME280;5341;47.606;7.576;2023-07-08T08:39:17;99047.06;;;24.79;55.91
10587;BME280;5341;47.606;7.576;2023-07-08T08:41:44;99042.69;;;24.83;55.85
10587;BME280;5341;47.606;7.576;2023-07-08T08:44:14;99044.63;;;24.88;55.92
10587;BME280;5341;47.606;7.576;2023-07-08T08:46:49;99046.56;;;24.92;55.83
10587;BME280;5341;47.606;7.576;2023-07-08T08:49:25;99046.00;;;24.95;55.88
10587;BME280;5341;47.606;7.576;2023-07-08T08:51:54;99050.16;;;24.98;55.73
10587;BME280;5341;47.606;7.576;2023-07-08T08:54:23;99051.28;;;25.02;55.85
10587;BME280;5341;47.606;7.576;2023-07-08T08:56:57;99054.84;;;25.07;55.63
10587;BME280;5341;47.606;7.576;2023-07-08T08:59:35;99045.56;;;25.13;55.90
10587;BME280;5341;47.606;7.576;2023-07-08T09:02:23;99040.13;;;25.24;55.57
10587;BME280;5341;47.606;7.576;2023-07-08T09:04:54;99049.41;;;25.28;55.52
10587;BME280;5341;47.606;7.576;2023-07-08T09:07:24;99037.66;;;25.32;55.33
10587;BME280;5341;47.606;7.576;2023-07-08T09:09:58;99045.34;;;25.35;55.36
10587;BME280;5341;47.606;7.576;2023-07-08T09:12:30;99040.13;;;25.39;55.23
10587;BME280;5341;47.606;7.576;2023-07-08T09:15:14;99036.56;;;25.43;55.40
10587;BME280;5341;47.606;7.576;2023-07-08T09:17:44;99034.41;;;25.46;55.43
10587;BME280;5341;47.606;7.576;2023-07-08T09:20:20;99037.13;;;25.51;55.37
10587;BME280;5341;47.606;7.576;2023-07-08T09:22:53;99040.97;;;25.60;55.36
10587;BME280;5341;47.606;7.576;2023-07-08T09:25:27;99043.97;;;25.63;55.17
10587;BME280;5341;47.606;7.576;2023-07-08T09:27:58;99045.41;;;25.71;55.51
10587;BME280;5341;47.606;7.576;2023-07-08T09:30:27;99044.56;;;25.81;54.99
10587;BME280;5341;47.606;7.576;2023-07-08T09:33:02;99043.44;;;25.92;54.83
10587;BME280;5341;47.606;7.576;2023-07-08T09:35:39;99046.47;;;26.00;54.94
10587;BME280;5341;47.606;7.576;2023-07-08T09:38:08;99053.31;;;26.08;54.62
10587;BME280;5341;47.606;7.576;2023-07-08T09:40:36;99048.34;;;26.15;54.36
10587;BME280;5341;47.606;7.576;2023-07-08T09:43:23;99045.06;;;26.23;53.68
10587;BME280;5341;47.606;7.576;2023-07-08T09:45:58;99039.81;;;26.27;53.61
10587;BME280;5341;47.606;7.576;2023-07-08T09:48:31;99050.25;;;26.30;53.44
10587;BME280;5341;47.606;7.576;2023-07-08T09:51:00;99045.59;;;26.31;53.38
10587;BME280;5341;47.606;7.576;2023-07-08T09:53:28;99048.06;;;26.37;53.39
10587;BME280;5341;47.606;7.576;2023-07-08T09:55:58;99054.66;;;26.41;53.36
10587;BME280;5341;47.606;7.576;2023-07-08T09:58:30;99046.69;;;26.45;53.69
10587;BME280;5341;47.606;7.576;2023-07-08T10:01:01;99041.44;;;26.48;53.71
10587;BME280;5341;47.606;7.576;2023-07-08T10:03:35;99048.28;;;26.56;53.80
10587;BME280;5341;47.606;7.576;2023-07-08T10:06:06;99042.19;;;26.64;53.33
10587;BME280;5341;47.606;7.576;2023-07-08T10:08:40;99044.91;;;26.79;53.62
10587;BME280;5341;47.606;7.576;2023-07-08T10:11:17;99040.72;;;26.92;53.47
10587;BME280;5341;47.606;7.576;2023-07-08T10:13:50;99037.13;;;26.97;53.31
10587;BME280;5341;47.606;7.576;2023-07-08T10:16:24;99042.00;;;27.10;53.18
10587;BME280;5341;47.606;7.576;2023-07-08T10:18:54;99032.09;;;27.19;53.13
10587;BME280;5341;47.606;7.576;2023-07-08T10:21:36;99043.28;;;27.28;52.19
10587;BME280;5341;47.606;7.576;2023-07-08T10:24:21;99041.63;;;27.32;51.92
10587;BME280;5341;47.606;7.576;2023-07-08T10:26:57;99040.72;;;27.41;51.67
10587;BME280;5341;47.606;7.576;2023-07-08T10:29:32;99039.03;;;27.51;51.58
10587;BME280;5341;47.606;7.576;2023-07-08T10:32:07;99044.47;;;27.56;50.97
10587;BME280;5341;47.606;7.576;2023-07-08T10:34:44;99038.09;;;27.60;51.11
10587;BME280;5341;47.606;7.576;2023-07-08T10:37:23;99041.66;;;27.66;50.50
10587;BME280;5341;47.606;7.576;2023-07-08T10:40:07;99048.22;;;27.70;50.97
10587;BME280;5341;47.606;7.576;2023-07-08T10:42:55;99049.56;;;27.72;50.60
10587;BME280;5341;47.606;7.576;2023-07-08T10:45:30;99043.78;;;27.74;50.38
10587;BME280;5341;47.606;7.576;2023-07-08T10:48:13;99044.34;;;27.76;50.07
10587;BME280;5341;47.606;7.576;2023-07-08T10:51:01;99042.97;;;27.73;49.95
10587;BME280;5341;47.606;7.576;2023-07-08T10:54:00;99042.69;;;27.75;49.82
10587;BME280;5341;47.606;7.576;2023-07-08T10:56:37;99050.94;;;27.75;49.52
10587;BME280;5341;47.606;7.576;2023-07-08T10:59:32;99047.94;;;27.71;49.03
10587;BME280;5341;47.606;7.576;2023-07-08T11:05:24;99046.88;;;27.67;49.27
10587;BME280;5341;47.606;7.576;2023-07-08T11:08:03;99051.25;;;27.68;49.38
10587;BME280;5341;47.606;7.576;2023-07-08T11:10:35;99048.22;;;27.70;49.47
10587;BME280;5341;47.606;7.576;2023-07-08T11:13:09;99047.41;;;27.69;49.54
10587;BME280;5341;47.606;7.576;2023-07-08T11:15:42;99042.44;;;27.71;49.48
10587;BME280;5341;47.606;7.576;2023-07-08T11:18:17;99039.13;;;27.75;49.22
10587;BME280;5341;47.606;7.576;2023-07-08T11:20:57;99042.69;;;27.75;49.06
10587;BME280;5341;47.606;7.576;2023-07-08T11:23:31;99048.19;;;27.75;49.02
10587;BME280;5341;47.606;7.576;2023-07-08T11:26:10;99045.97;;;27.77;49.03
10587;BME280;5341;47.606;7.576;2023-07-08T11:28:41;99036.91;;;27.77;48.93
10587;BME280;5341;47.606;7.576;2023-07-08T11:31:09;99040.47;;;27.77;48.98
10587;BME280;5341;47.606;7.576;2023-07-08T11:33:38;99036.91;;;27.77;49.22
10587;BME280;5341;47.606;7.576;2023-07-08T11:36:08;99047.63;;;27.78;49.06
10587;BME280;5341;47.606;7.576;2023-07-08T11:38:47;99046.75;;;27.83;49.06
10587;BME280;5341;47.606;7.576;2023-07-08T11:41:17;99041.47;;;27.86;49.28
10587;BME280;5341;47.606;7.576;2023-07-08T11:43:49;99043.38;;;27.91;49.12
10587;BME280;5341;47.606;7.576;2023-07-08T11:46:23;99040.88;;;27.94;49.12
10587;BME280;5341;47.606;7.576;2023-07-08T11:48:56;99037.53;;;27.97;48.83
10587;BME280;5341;47.606;7.576;2023-07-08T11:51:28;99031.75;;;27.99;48.92
10587;BME280;5341;47.606;7.576;2023-07-08T11:54:11;99033.94;;;28.02;49.06
10587;BME280;5341;47.606;7.576;2023-07-08T11:56:48;99036.31;;;28.09;48.99
10587;BME280;5341;47.606;7.576;2023-07-08T11:59:18;99032.34;;;28.20;49.18
10587;BME280;5341;47.606;7.576;2023-07-08T12:01:51;99032.81;;;28.32;49.43
10587;BME280;5341;47.606;7.576;2023-07-08T12:04:26;99039.50;;;28.50;48.79
10587;BME280;5341;47.606;7.576;2023-07-08T12:07:11;99034.41;;;28.62;47.45
10587;BME280;5341;47.606;7.576;2023-07-08T12:09:47;99036.47;;;28.70;47.79
10587;BME280;5341;47.606;7.576;2023-07-08T12:12:23;99031.66;;;28.81;47.83
10587;BME280;5341;47.606;7.576;2023-07-08T12:14:54;99029.16;;;28.84;47.46
10587;BME280;5341;47.606;7.576;2023-07-08T12:17:26;99024.59;;;28.99;47.22
10587;BME280;5341;47.606;7.576;2023-07-08T12:19:55;99026.38;;;29.08;46.79
10587;BME280;5341;47.606;7.576;2023-07-08T12:22:25;99016.56;;;29.21;47.18
10587;BME280;5341;47.606;7.576;2023-07-08T12:24:55;99016.53;;;29.40;47.38
10587;BME280;5341;47.606;7.576;2023-07-08T12:27:25;99021.25;;;29.58;46.49
10587;BME280;5341;47.606;7.576;2023-07-08T12:29:52;99018.38;;;29.82;46.15
10587;BME280;5341;47.606;7.576;2023-07-08T12:32:20;99010.94;;;29.96;45.63
10587;BME280;5341;47.606;7.576;2023-07-08T12:34:51;99011.91;;;30.06;45.24
10587;BME280;5341;47.606;7.576;2023-07-08T12:37:19;99009.56;;;30.13;44.89
10587;BME280;5341;47.606;7.576;2023-07-08T12:39:55;98999.66;;;30.25;44.49
10587;BME280;5341;47.606;7.576;2023-07-08T12:42:25;99010.28;;;30.32;44.10
10587;BME280;5341;47.606;7.576;2023-07-08T12:44:53;98996.81;;;30.44;43.44
10587;BME280;5341;47.606;7.576;2023-07-08T12:47:20;98999.03;;;30.56;43.30
10587;BME280;5341;47.606;7.576;2023-07-08T12:49:48;98987.50;;;30.68;42.70
10587;BME280;5341;47.606;7.576;2023-07-08T12:52:20;98990.47;;;30.71;42.11
10587;BME280;5341;47.606;7.576;2023-07-08T12:54:48;98990.66;;;30.75;42.43
10587;BME280;5341;47.606;7.576;2023-07-08T12:57:17;98993.81;;;30.82;42.23
10587;BME280;5341;47.606;7.576;2023-07-08T12:59:46;98989.72;;;30.93;43.03
10587;BME280;5341;47.606;7.576;2023-07-08T13:02:16;98982.69;;;31.09;42.52
10587;BME280;5341;47.606;7.576;2023-07-08T13:04:45;98979.59;;;31.25;42.51
10587;BME280;5341;47.606;7.576;2023-07-08T13:07:22;98978.53;;;31.34;41.68
10587;BME280;5341;47.606;7.576;2023-07-08T13:09:51;98977.06;;;31.51;41.80
10587;BME280;5341;47.606;7.576;2023-07-08T13:12:21;98980.34;;;31.61;42.07
10587;BME280;5341;47.606;7.576;2023-07-08T13:14:51;98981.53;;;31.69;41.49
10587;BME280;5341;47.606;7.576;2023-07-08T13:17:20;98985.31;;;31.73;41.01
10587;BME280;5341;47.606;7.576;2023-07-08T13:19:48;98976.13;;;31.86;41.41
10587;BME280;5341;47.606;7.576;2023-07-08T13:22:18;98976.00;;;31.91;40.24
10587;BME280;5341;47.606;7.576;2023-07-08T13:24:47;98970.97;;;31.93;41.21
10587;BME280;5341;47.606;7.576;2023-07-08T13:27:20;98966.81;;;32.04;41.01
10587;BME280;5341;47.606;7.576;2023-07-08T13:29:51;98971.72;;;32.16;41.24
10587;BME280;5341;47.606;7.576;2023-07-08T13:32:18;98966.56;;;32.23;40.76